Time;durP1;ratioP1;P1;durP2;ratioP2;P2;SDS_P1;SDS_P2;PMS_P1;PMS_P2;Temp;Humidity;BMP_temperature;BMP_pressure;BME280_temperature;BME280_humidity;BME280_pressure;Samples;Min_cycle;Max_cycle;Signal;HPM_P1;HPM_P2
2023/04/19 04:39:17;;;;;;;;;;;;;;;8.56;100.00;99738.94;109706;1284;22497;-46
2023/04/19 04:41:46;;;;;;;;;;;;;;;8.74;100.00;99733.54;109688;1285;22453;-55
2023/04/19 04:44:15;;;;;;;;;;;;;;;8.89;100.00;99728.12;109722;1284;23247;-46
2023/04/19 04:46:43;;;;;;;;;;;;;;;9.03;100.00;99727.23;109766;1279;22571;-46
2023/04/19 04:49:13;;;;;;;;;;;;;;;9.15;100.00;99726.31;109731;1277;22455;-55
2023/04/19 04:51:42;;;;;;;;;;;;;;;9.26;100.00;99729.06;109809;1281;22434;-46
2023/04/19 04:54:10;;;;;;;;;;;;;;;9.38;100.00;99727.96;109788;1278;22444;-55
2023/04/19 04:56:38;;;;;;;;;;;;;;;9.51;100.00;99720.44;109709;1280;22445;-55
2023/04/19 04:59:07;;;;;;;;;;;;;;;9.63;100.00;99716.52;109632;1278;22550;-46
2023/04/19 05:01:38;;;;;;;;;;;;;;;9.73;100.00;99716.13;109619;1284;22530;-47
2023/04/19 05:04:06;;;;;;;;;;;;;;;9.83;100.00;99717.11;109623;1283;22547;-46
2023/04/19 05:06:35;;;;;;;;;;;;;;;9.99;100.00;99713.52;109543;1279;24344;-46
2023/04/19 05:09:03;;;;;;;;;;;;;;;10.13;100.00;99713.60;109478;1278;23374;-56
2023/04/19 05:11:34;;;;;;;;;;;;;;;10.27;100.00;99710.73;109590;1281;22546;-55
2023/04/19 05:14:02;;;;;;;;;;;;;;;10.40;100.00;99713.24;109506;1284;22987;-54
2023/04/19 05:16:31;;;;;;;;;;;;;;;10.51;100.00;99711.75;109490;1285;22475;-55
2023/04/19 05:19:00;;;;;;;;;;;;;;;10.61;100.00;99707.46;109615;1280;22461;-45
2023/04/19 05:21:32;;;;;;;;;;;;;;;10.71;100.00;99708.44;109477;1285;22539;-46
2023/04/19 05:24:01;;;;;;;;;;;;;;;10.81;100.00;99709.38;109470;1281;22469;-47
2023/04/19 05:26:31;;;;;;;;;;;;;;;10.93;99.89;99705.06;109393;1284;22441;-48
2023/04/19 05:29:00;;;;;;;;;;;;;;;11.04;99.41;99706.16;109479;1278;22567;-57
2023/04/19 05:31:41;;;;;;;;;;;;;;;11.15;98.77;99704.11;109226;1278;22544;-55
2023/04/19 05:34:19;;;;;;;;;;;;;;;11.25;98.50;99705.39;109215;1278;22541;-56
2023/04/19 05:36:59;;;;;;;;;;;;;;;11.36;98.02;99705.08;109191;1281;22447;-54
2023/04/19 05:39:32;;;;;;;;;;;;;;;11.48;97.36;99701.43;109177;1278;23665;-45
2023/04/19 05:42:03;;;;;;;;;;;;;;;11.61;96.57;99701.61;109178;1284;23200;-46
2023/04/19 05:44:43;;;;;;;;;;;;;;;11.72;95.53;99704.61;109220;1284;22472;-45
2023/04/19 05:47:12;;;;;;;;;;;;;;;11.83;94.93;99705.69;109101;1278;22748;-55
2023/04/19 05:50:17;;;;;;;;;;;;;;;11.93;93.66;99702.59;109123;1284;22479;-55
2023/04/19 05:56:03;;;;;;;;;;;;;;;12.09;92.85;99707.42;109201;1281;23108;-47
2023/04/19 05:59:17;;;;;;;;;;;;;;;12.15;91.94;99708.89;109291;1280;22451;-56
2023/04/19 06:02:26;;;;;;;;;;;;;;;12.18;90.69;99718.30;109316;1280;22893;-54
2023/04/19 06:05:20;;;;;;;;;;;;;;;12.19;90.27;99722.46;109152;1284;22476;-45
2023/04/19 06:08:04;;;;;;;;;;;;;;;12.21;89.77;99726.45;109277;1276;22549;-58
2023/04/19 06:10:48;;;;;;;;;;;;;;;12.25;89.24;99729.73;109168;1281;23574;-57
2023/04/19 06:13:26;;;;;;;;;;;;;;;12.27;88.63;99734.41;109279;1281;22452;-46
2023/04/19 06:16:02;;;;;;;;;;;;;;;12.26;88.05;99730.94;109369;1279;22477;-54
2023/04/19 06:18:53;;;;;;;;;;;;;;;12.25;87.79;99734.96;109296;1280;23148;-47
2023/04/19 06:22:06;;;;;;;;;;;;;;;12.27;87.52;99730.38;109275;1278;22439;-56
2023/04/19 06:24:52;;;;;;;;;;;;;;;12.33;86.52;99724.35;109386;1281;22453;-46
2023/04/19 06:27:34;;;;;;;;;;;;;;;12.36;86.09;99718.70;109441;1283;22449;-46
2023/04/19 06:30:09;;;;;;;;;;;;;;;12.39;85.61;99710.08;109187;1284;22476;-47
2023/04/19 06:32:37;;;;;;;;;;;;;;;12.46;85.63;99709.79;109445;1284;22466;-45
2023/04/19 06:35:05;;;;;;;;;;;;;;;12.55;85.32;99699.48;109455;1284;23280;-54
2023/04/19 06:37:34;;;;;;;;;;;;;;;12.65;84.75;99696.15;109492;1281;22465;-60
2023/04/19 06:40:07;;;;;;;;;;;;;;;12.77;85.12;99687.89;109458;1284;23413;-55
2023/04/19 06:42:37;;;;;;;;;;;;;;;12.93;84.23;99690.92;109447;1281;22510;-46
2023/04/19 06:45:08;;;;;;;;;;;;;;;13.08;83.68;99689.05;109390;1280;22467;-47
2023/04/19 06:47:37;;;;;;;;;;;;;;;13.22;83.19;99688.10;109502;1279;22494;-47
2023/04/19 06:50:07;;;;;;;;;;;;;;;13.34;82.70;99684.02;109559;1284;22522;-55
2023/04/19 06:52:41;;;;;;;;;;;;;;;13.43;82.49;99685.05;109646;1280;22457;-46
2023/04/19 06:55:10;;;;;;;;;;;;;;;13.55;82.56;99679.01;109341;1278;22466;-57
2023/04/19 06:57:38;;;;;;;;;;;;;;;13.69;82.40;99675.20;109385;1283;22447;-57
2023/04/19 07:00:06;;;;;;;;;;;;;;;13.82;82.13;99674.70;109419;1281;22520;-55
2023/04/19 07:03:06;;;;;;;;;;;;;;;13.93;81.72;99679.73;109265;1278;22458;-53
2023/04/19 07:09:51;;;;;;;;;;;;;;;14.09;80.22;99678.82;109306;1279;23127;-45
2023/04/19 07:15:41;;;;;;;;;;;;;;;14.06;79.85;99684.30;109423;1285;22457;-52
2023/04/19 07:18:24;;;;;;;;;;;;;;;14.07;80.12;99689.71;109201;1285;22449;-45
2023/04/19 07:24:32;;;;;;;;;;;;;;;14.10;80.06;99684.94;109343;1285;22552;-47
2023/04/19 07:27:31;;;;;;;;;;;;;;;14.10;80.30;99684.57;109250;1283;22508;-46
2023/04/19 07:30:11;;;;;;;;;;;;;;;14.16;80.41;99683.73;109395;1280;23639;-45
2023/04/19 07:32:40;;;;;;;;;;;;;;;14.27;80.15;99685.73;109404;1278;22488;-53
2023/04/19 07:35:12;;;;;;;;;;;;;;;14.41;80.05;99687.33;109180;1280;22511;-45
2023/04/19 07:37:40;;;;;;;;;;;;;;;14.56;79.90;99679.95;109400;1283;23087;-48
2023/04/19 07:40:09;;;;;;;;;;;;;;;14.71;79.72;99678.66;109453;1281;22446;-54
2023/04/19 07:42:37;;;;;;;;;;;;;;;14.84;79.34;99672.52;109583;1280;24347;-47
2023/04/19 07:45:06;;;;;;;;;;;;;;;14.95;79.04;99669.95;109519;1277;22845;-45
2023/04/19 07:47:34;;;;;;;;;;;;;;;15.05;78.59;99668.79;109641;1284;22461;-47
2023/04/19 07:50:03;;;;;;;;;;;;;;;15.10;77.22;99669.19;109471;1277;23670;-46
2023/04/19 07:52:31;;;;;;;;;;;;;;;15.09;77.63;99669.73;109228;1280;22995;-49
2023/04/19 07:55:02;;;;;;;;;;;;;;;15.16;78.17;99668.30;109049;1280;22441;-48
2023/04/19 07:57:31;;;;;;;;;;;;;;;15.26;77.58;99668.55;109368;1284;22887;-46
2023/04/19 08:00:00;;;;;;;;;;;;;;;15.30;77.14;99663.48;109421;1278;22476;-57
2023/04/19 08:02:30;;;;;;;;;;;;;;;15.35;77.09;99664.58;109532;1281;22574;-48
2023/04/19 08:05:01;;;;;;;;;;;;;;;15.41;76.68;99665.98;109420;1284;22475;-58
2023/04/19 08:07:36;;;;;;;;;;;;;;;15.43;76.10;99663.48;109269;1284;23179;-57
2023/04/19 08:10:06;;;;;;;;;;;;;;;15.42;75.82;99668.05;109450;1279;22435;-46
2023/04/19 08:12:35;;;;;;;;;;;;;;;15.45;75.79;99666.23;109376;1286;22973;-47
2023/04/19 08:15:20;;;;;;;;;;;;;;;15.47;75.94;99669.86;109412;1285;22468;-47
2023/04/19 08:17:56;;;;;;;;;;;;;;;15.55;76.37;99666.42;109508;1280;22479;-45
2023/04/19 08:20:24;;;;;;;;;;;;;;;15.68;76.36;99668.73;109604;1285;23155;-55
2023/04/19 08:22:53;;;;;;;;;;;;;;;15.81;75.95;99676.42;109522;1279;22532;-57
2023/04/19 08:25:25;;;;;;;;;;;;;;;15.88;75.08;99677.40;109563;1284;22437;-56
2023/04/19 08:27:54;;;;;;;;;;;;;;;15.94;75.49;99677.05;109516;1279;23366;-56
2023/04/19 08:30:22;;;;;;;;;;;;;;;16.06;75.07;99675.09;109581;1279;22480;-56
2023/04/19 08:32:51;;;;;;;;;;;;;;;16.22;74.88;99673.33;109556;1283;22493;-46
2023/04/19 08:35:22;;;;;;;;;;;;;;;16.42;73.95;99677.58;109578;1284;23160;-57
2023/04/19 08:37:50;;;;;;;;;;;;;;;16.56;72.93;99677.11;109615;1285;23337;-46
2023/04/19 08:40:19;;;;;;;;;;;;;;;16.61;71.67;99675.52;109534;1281;23164;-57
2023/04/19 08:43:33;;;;;;;;;;;;;;;16.60;71.81;99672.58;109579;1284;22448;-56
2023/04/19 08:46:22;;;;;;;;;;;;;;;16.77;72.09;99672.01;109206;1285;22511;-47
2023/04/19 08:48:52;;;;;;;;;;;;;;;16.94;72.07;99672.11;109327;1285;22482;-48
2023/04/19 08:51:21;;;;;;;;;;;;;;;17.16;71.05;99664.81;109428;1283;23036;-50
2023/04/19 08:54:15;;;;;;;;;;;;;;;17.39;69.82;99665.37;109045;1278;22468;-46
2023/04/19 08:57:55;;;;;;;;;;;;;;;17.58;69.55;99664.63;109512;1280;22477;-47
2023/04/19 09:01:18;;;;;;;;;;;;;;;17.72;68.37;99657.20;109279;1281;23830;-56
2023/04/19 09:04:06;;;;;;;;;;;;;;;17.76;67.65;99657.77;109313;1286;23458;-57
2023/04/19 09:06:55;;;;;;;;;;;;;;;17.81;67.62;99653.89;109435;1281;22473;-47
2023/04/19 09:09:32;;;;;;;;;;;;;;;17.90;67.73;99657.06;109021;1283;22914;-50
2023/04/19 09:12:17;;;;;;;;;;;;;;;18.00;66.50;99659.65;108969;1283;22437;-49
2023/04/19 09:14:51;;;;;;;;;;;;;;;17.96;66.09;99662.27;109248;1279;22466;-54
2023/04/19 09:17:38;;;;;;;;;;;;;;;17.87;66.27;99664.73;109309;1279;23445;-55
2023/04/19 09:20:15;;;;;;;;;;;;;;;17.76;66.21;99658.67;109279;1273;22454;-47
2023/04/19 09:23:03;;;;;;;;;;;;;;;17.63;66.48;99660.18;109400;1280;22497;-57
2023/04/19 09:26:03;;;;;;;;;;;;;;;17.62;66.98;99658.64;109053;1281;22477;-56
2023/04/19 09:29:06;;;;;;;;;;;;;;;17.81;66.92;99655.27;109275;1281;23017;-46
2023/04/19 09:31:36;;;;;;;;;;;;;;;17.94;65.85;99656.34;109079;1280;22469;-57
2023/04/19 09:34:13;;;;;;;;;;;;;;;17.93;65.38;99661.52;109156;1282;23203;-46
2023/04/19 09:36:53;;;;;;;;;;;;;;;17.94;65.23;99659.52;109011;1279;22463;-56
2023/04/19 09:40:26;;;;;;;;;;;;;;;18.11;65.30;99661.30;108876;1280;23297;-54
2023/04/19 09:44:00;;;;;;;;;;;;;;;18.23;64.51;99662.59;108746;1283;22529;-47
2023/04/19 09:51:04;;;;;;;;;;;;;;;18.28;63.06;99659.39;108991;1281;22933;-56
2023/04/19 09:54:45;;;;;;;;;;;;;;;18.14;62.74;99660.13;109282;1285;22987;-47
2023/04/19 09:57:25;;;;;;;;;;;;;;;17.99;63.40;99655.29;109225;1282;22442;-45
2023/04/19 09:59:53;;;;;;;;;;;;;;;17.90;63.49;99658.62;109140;1284;23696;-55
2023/04/19 10:02:22;;;;;;;;;;;;;;;17.83;64.37;99660.34;109144;1283;22545;-54
2023/04/19 10:04:52;;;;;;;;;;;;;;;17.83;64.35;99660.50;109315;1280;22546;-46
2023/04/19 10:07:24;;;;;;;;;;;;;;;17.85;64.03;99664.12;109184;1280;23033;-55
2023/04/19 10:10:01;;;;;;;;;;;;;;;17.80;63.74;99670.66;109406;1282;22451;-46
2023/04/19 10:12:48;;;;;;;;;;;;;;;17.65;63.15;99668.23;109224;1286;22830;-47
2023/04/19 10:15:20;;;;;;;;;;;;;;;17.48;63.66;99669.25;109340;1286;23082;-48
2023/04/19 10:17:49;;;;;;;;;;;;;;;17.32;63.89;99672.65;109436;1281;22490;-54
2023/04/19 10:20:29;;;;;;;;;;;;;;;17.13;63.70;99673.71;109228;1280;22553;-47
2023/04/19 10:22:58;;;;;;;;;;;;;;;16.95;64.49;99677.72;109058;1280;23518;-45
2023/04/19 10:25:28;;;;;;;;;;;;;;;16.83;65.40;99682.20;109252;1283;22676;-46
2023/04/19 10:27:57;;;;;;;;;;;;;;;16.72;65.94;99685.05;109221;1278;22453;-56
2023/04/19 10:30:28;;;;;;;;;;;;;;;16.58;66.31;99690.60;109068;1283;22468;-45
2023/04/19 10:32:57;;;;;;;;;;;;;;;16.41;66.91;99692.95;109405;1285;23192;-47
2023/04/19 10:35:28;;;;;;;;;;;;;;;16.26;67.57;99691.34;109291;1280;22564;-45
2023/04/19 10:38:06;;;;;;;;;;;;;;;16.08;68.19;99694.56;109363;1280;23011;-46
2023/04/19 10:40:54;;;;;;;;;;;;;;;15.82;69.70;99696.41;109406;1284;23036;-46
2023/04/19 10:43:22;;;;;;;;;;;;;;;15.66;70.44;99700.95;109380;1280;22561;-54
2023/04/19 10:45:51;;;;;;;;;;;;;;;15.59;71.52;99701.84;109493;1286;23799;-54
2023/04/19 10:48:29;;;;;;;;;;;;;;;15.52;72.24;99702.04;109498;1283;22468;-54
2023/04/19 10:51:03;;;;;;;;;;;;;;;15.53;73.13;99699.72;109388;1280;22465;-46
2023/04/19 10:53:47;;;;;;;;;;;;;;;15.58;73.09;99697.84;109415;1280;23347;-46
2023/04/19 10:56:23;;;;;;;;;;;;;;;15.69;73.99;99695.42;109332;1280;23153;-46
2023/04/19 10:59:13;;;;;;;;;;;;;;;15.85;73.98;99697.04;109227;1286;22911;-55
2023/04/19 11:01:45;;;;;;;;;;;;;;;15.92;74.13;99697.16;109337;1284;22972;-47
2023/04/19 11:04:14;;;;;;;;;;;;;;;16.00;74.53;99695.50;109343;1285;23449;-48
2023/04/19 11:06:52;;;;;;;;;;;;;;;16.14;75.01;99699.98;109373;1278;22452;-45
2023/04/19 11:09:27;;;;;;;;;;;;;;;16.23;74.38;99698.28;109454;1280;22488;-45
2023/04/19 11:11:59;;;;;;;;;;;;;;;16.26;74.23;99695.20;109426;1284;22432;-46
2023/04/19 11:14:33;;;;;;;;;;;;;;;16.27;74.00;99700.08;109363;1285;23184;-54
2023/04/19 11:17:02;;;;;;;;;;;;;;;16.23;73.65;99701.80;109236;1279;22876;-47
2023/04/19 11:19:31;;;;;;;;;;;;;;;16.16;73.45;99701.31;109255;1286;23645;-46
2023/04/19 11:21:59;;;;;;;;;;;;;;;16.08;73.67;99705.98;109342;1285;22480;-46
2023/04/19 11:24:27;;;;;;;;;;;;;;;15.98;73.60;99708.95;109219;1286;262786;-47
2023/04/19 11:26:56;;;;;;;;;;;;;;;15.82;73.43;99706.08;109433;1282;22478;-46
2023/04/19 11:29:24;;;;;;;;;;;;;;;15.67;73.55;99710.39;109423;1284;23372;-46
2023/04/19 11:31:52;;;;;;;;;;;;;;;15.50;74.16;99704.73;109503;1280;22462;-46
2023/04/19 11:34:23;;;;;;;;;;;;;;;15.34;74.56;99705.73;109494;1282;22484;-47
2023/04/19 11:36:51;;;;;;;;;;;;;;;15.18;75.07;99708.81;109582;1285;22446;-47
2023/04/19 11:39:20;;;;;;;;;;;;;;;15.03;75.58;99703.43;109573;1284;22563;-47
2023/04/19 11:41:48;;;;;;;;;;;;;;;14.91;75.87;99703.74;109583;1283;22488;-54
2023/04/19 11:44:18;;;;;;;;;;;;;;;14.84;76.44;99703.59;109590;1283;23635;-46
2023/04/19 11:46:56;;;;;;;;;;;;;;;14.76;76.88;99697.67;109512;1285;22559;-47
2023/04/19 11:49:31;;;;;;;;;;;;;;;14.69;77.17;99696.27;109556;1285;22504;-55
2023/04/19 11:52:00;;;;;;;;;;;;;;;14.63;77.43;99696.79;109606;1286;22527;-54
2023/04/19 11:54:32;;;;;;;;;;;;;;;14.57;77.03;99694.13;109584;1286;22465;-47
2023/04/19 11:57:02;;;;;;;;;;;;;;;14.51;77.18;99688.84;109620;1286;22519;-46
2023/04/19 11:59:31;;;;;;;;;;;;;;;14.50;77.61;99686.96;109568;1283;23143;-54
2023/04/19 12:02:05;;;;;;;;;;;;;;;14.51;78.04;99688.66;109578;1286;22451;-54
2023/04/19 12:04:34;;;;;;;;;;;;;;;14.52;77.80;99688.64;109616;1286;23288;-47
2023/04/19 12:07:03;;;;;;;;;;;;;;;14.53;78.01;99688.80;109616;1286;22516;-55
2023/04/19 12:09:35;;;;;;;;;;;;;;;14.56;78.22;99688.21;109690;1285;22469;-55
2023/04/19 12:12:03;;;;;;;;;;;;;;;14.59;78.22;99686.88;109640;1280;22464;-46
2023/04/19 12:14:31;;;;;;;;;;;;;;;14.61;78.37;99689.29;109657;1285;22467;-46
2023/04/19 12:17:12;;;;;;;;;;;;;;;14.65;78.04;99688.67;109610;1286;22439;-46
2023/04/19 12:19:44;;;;;;;;;;;;;;;14.69;78.01;99692.08;109653;1286;23161;-55
2023/04/19 12:22:13;;;;;;;;;;;;;;;14.72;77.86;99693.39;109677;1286;22459;-54
2023/04/19 12:24:41;;;;;;;;;;;;;;;14.75;77.84;99696.30;109682;1286;22448;-46
2023/04/19 12:27:10;;;;;;;;;;;;;;;14.78;77.52;99695.86;109702;1280;22516;-47
2023/04/19 12:29:38;;;;;;;;;;;;;;;14.78;77.36;99695.86;109670;1287;22436;-47
2023/04/19 12:32:06;;;;;;;;;;;;;;;14.75;77.37;99698.92;109660;1286;22438;-48
2023/04/19 12:34:34;;;;;;;;;;;;;;;14.68;77.51;99699.80;109652;1286;22491;-46
2023/04/19 12:37:05;;;;;;;;;;;;;;;14.56;78.21;99701.52;109666;1286;23135;-47
2023/04/19 12:39:33;;;;;;;;;;;;;;;14.51;79.03;99699.73;109684;1287;22472;-46
2023/04/19 12:42:01;;;;;;;;;;;;;;;14.46;79.07;99704.94;109738;1285;22478;-46
2023/04/19 12:44:29;;;;;;;;;;;;;;;14.38;79.48;99704.92;109751;1285;23058;-47
2023/04/19 12:46:58;;;;;;;;;;;;;;;14.31;79.96;99709.67;109778;1285;23195;-47
2023/04/19 12:49:26;;;;;;;;;;;;;;;14.23;80.66;99712.66;109759;1285;23439;-55
2023/04/19 12:51:54;;;;;;;;;;;;;;;14.16;80.97;99714.23;109775;1285;22427;-55
2023/04/19 12:54:24;;;;;;;;;;;;;;;14.12;81.50;99717.48;109705;1285;22490;-46
2023/04/19 12:56:52;;;;;;;;;;;;;;;14.09;81.61;99715.45;109714;1285;22518;-46
2023/04/19 12:59:21;;;;;;;;;;;;;;;14.04;81.74;99717.33;109694;1285;23276;-47
2023/04/19 13:01:49;;;;;;;;;;;;;;;13.97;82.12;99720.11;109754;1285;22661;-54
2023/04/19 13:04:17;;;;;;;;;;;;;;;13.92;83.15;99718.66;109746;1285;23337;-47
2023/04/19 13:06:46;;;;;;;;;;;;;;;13.85;84.31;99718.13;109788;1285;22430;-46
2023/04/19 13:09:14;;;;;;;;;;;;;;;13.76;85.57;99715.68;109808;1285;22423;-47
2023/04/19 13:11:42;;;;;;;;;;;;;;;13.67;86.81;99718.52;109780;1285;22447;-47
2023/04/19 13:14:10;;;;;;;;;;;;;;;13.57;88.50;99713.98;109798;1285;22444;-47
2023/04/19 13:16:38;;;;;;;;;;;;;;;13.49;90.42;99713.64;109593;1287;22545;-47
2023/04/19 13:19:06;;;;;;;;;;;;;;;13.39;92.06;99710.54;109720;1287;22454;-47
2023/04/19 13:21:35;;;;;;;;;;;;;;;13.29;93.59;99710.90;109731;1287;23204;-53
